Time;durP1;ratioP1;P1;durP2;ratioP2;P2;SDS_P1;SDS_P2;PMS_P1;PMS_P2;Temp;Humidity;BMP_temperature;BMP_pressure;BME280_temperature;BME280_humidity;BME280_pressure;Samples;Min_cycle;Max_cycle;Signal;HPM_P1;HPM_P2
2024/03/08 00:00:42;;;;;;;0.30;0.30;;;;;;;7.39;100.00;74553.25;5035666;28;20062;-85
2024/03/08 00:06:45;;;;;;;0.20;0.20;;;;;;;7.38;100.00;74551.47;5022310;28;20072;-86
2024/03/08 00:09:35;;;;;;;0.20;0.20;;;;;;;7.20;100.00;74533.94;5019147;28;20034;-86
2024/03/08 00:18:42;;;;;;;0.30;0.30;;;;;;;7.06;100.00;74514.50;5038989;28;20064;-86
2024/03/08 00:22:11;;;;;;;0.25;0.25;;;;;;;7.24;100.00;74535.94;5057352;28;20045;-87
2024/03/08 00:24:55;;;;;;;0.30;0.30;;;;;;;7.17;100.00;74527.63;5040196;28;20037;-86
2024/03/08 00:28:25;;;;;;;0.22;0.22;;;;;;;7.25;100.00;74537.16;5034675;28;20029;-85
2024/03/08 00:31:37;;;;;;;0.20;0.20;;;;;;;7.15;100.00;74519.16;5037742;28;20141;-87
2024/03/08 00:34:15;;;;;;;0.20;0.20;;;;;;;7.26;100.00;74538.34;5028908;28;20052;-86
2024/03/08 00:40:12;;;;;;;0.20;0.20;;;;;;;7.23;100.00;74531.41;5056867;28;20052;-85
2024/03/08 00:46:15;;;;;;;0.30;0.30;;;;;;;7.63;100.00;74577.91;5018500;28;20085;-86
2024/03/08 00:49:04;;;;;;;0.20;0.20;;;;;;;7.33;100.00;74540.59;5059674;28;20020;-86
2024/03/08 00:52:25;;;;;;;0.20;0.20;;;;;;;7.24;100.00;74530.44;5059120;28;20021;-87
2024/03/08 00:55:21;;;;;;;0.30;0.30;;;;;;;7.28;100.00;74540.72;5049215;28;20028;-87
2024/03/08 01:12:03;;;;;;;0.28;0.28;;;;;;;7.51;100.00;74567.56;5039118;28;20116;-85
2024/03/08 01:15:01;;;;;;;0.20;0.20;;;;;;;7.73;100.00;74589.84;5033632;28;20046;-87
2024/03/08 01:18:15;;;;;;;0.30;0.30;;;;;;;7.70;100.00;74589.59;5006523;28;20061;-87
2024/03/08 01:24:46;;;;;;;0.30;0.30;;;;;;;7.62;100.00;74580.06;5038735;28;20033;-87
2024/03/08 01:28:30;;;;;;;0.30;0.30;;;;;;;7.25;100.00;74531.66;5032368;28;20029;-86
2024/03/08 01:49:59;;;;;;;0.20;0.20;;;;;;;7.26;100.00;74538.34;5079311;28;20047;-86
2024/03/08 01:53:22;;;;;;;0.30;0.30;;;;;;;7.16;100.00;74525.84;5057191;28;20041;-86
2024/03/08 01:56:36;;;;;;;0.30;0.30;;;;;;;7.07;100.00;74510.19;5028786;28;20033;-85
2024/03/08 02:06:24;;;;;;;0.20;0.20;;;;;;;7.17;100.00;74527.03;5062523;28;20052;-87
2024/03/08 02:09:27;;;;;;;0.20;0.20;;;;;;;6.90;100.00;74496.03;5065296;28;20044;-86
2024/03/08 02:12:52;;;;;;;0.30;0.30;;;;;;;7.16;100.00;74529.19;5074493;28;20051;-87
2024/03/08 02:16:10;;;;;;;;;;;;;;;7.21;100.00;74529.63;4980416;28;20034;-85
2024/03/08 02:50:55;;;;;;;0.28;0.28;;;;;;;7.12;100.00;74516.16;5247908;22;20071;-86
2024/03/08 02:54:04;;;;;;;0.30;0.30;;;;;;;6.77;100.00;74478.41;5068445;28;20049;-85
2024/03/08 03:07:52;;;;;;;0.20;0.20;;;;;;;6.77;100.00;74481.16;5183804;22;20060;-86
2024/03/08 03:10:57;;;;;;;0.20;0.20;;;;;;;7.14;100.00;74524.06;5028114;28;20043;-85
2024/03/08 03:13:55;;;;;;;;;;;;;;;7.11;100.00;74520.47;5041625;28;20017;-86
2024/03/08 03:17:30;;;;;;;0.30;0.30;;;;;;;6.75;100.00;74473.25;5065863;28;19928;-87
2024/03/08 03:20:22;;;;;;;0.28;0.28;;;;;;;6.92;100.00;74492.31;5045470;28;20013;-86
2024/03/08 03:23:08;;;;;;;0.30;0.30;;;;;;;7.13;100.00;74519.50;5076910;28;20037;-85
2024/03/08 03:29:27;;;;;;;;;;;;;;;6.99;100.00;74503.44;5074594;28;20087;-86
2024/03/08 03:32:00;;;;;;;0.20;0.20;;;;;;;6.93;100.00;74499.03;4981355;28;19909;-86
2024/03/08 03:34:38;;;;;;;0.30;0.30;;;;;;;6.93;100.00;74493.53;4975455;28;20023;-86
2024/03/08 03:37:32;;;;;;;0.20;0.20;;;;;;;6.85;100.00;74489.47;4997012;28;20027;-86
2024/03/08 03:40:46;;;;;;;0.25;0.25;;;;;;;7.16;100.00;74526.44;4992455;28;20106;-85
2024/03/08 03:44:23;;;;;;;0.20;0.20;;;;;;;7.12;100.00;74521.66;4990316;28;20019;-87
2024/03/08 03:47:26;;;;;;;0.25;0.25;;;;;;;6.69;100.00;74471.59;5014954;28;20072;-86
2024/03/08 03:50:44;;;;;;;0.20;0.20;;;;;;;6.89;100.00;74488.75;5016288;28;20046;-86
2024/03/08 03:56:25;;;;;;;0.20;0.20;;;;;;;7.08;100.00;74512.00;5017554;28;20038;-87
2024/03/08 03:58:54;;;;;;;0.30;0.30;;;;;;;6.84;100.00;74488.88;4984686;28;20023;-84
2024/03/08 04:02:11;;;;;;;0.30;0.30;;;;;;;7.01;100.00;74505.81;5017533;28;20014;-86
2024/03/08 04:05:03;;;;;;;0.30;0.30;;;;;;;6.83;100.00;74482.81;5001064;28;20018;-87
2024/03/08 04:08:31;;;;;;;0.30;0.30;;;;;;;6.66;100.00;74468.03;4975079;28;20111;-86
2024/03/08 04:11:43;;;;;;;0.30;0.30;;;;;;;6.95;100.00;74496.50;5016432;28;20015;-86
2024/03/08 04:14:23;;;;;;;0.20;0.20;;;;;;;6.63;100.00;74464.47;5007032;28;20019;-86
2024/03/08 04:17:21;;;;;;;0.20;0.20;;;;;;;6.99;100.00;74506.16;5041540;28;20021;-85
2024/03/08 04:23:53;;;;;;;0.20;0.20;;;;;;;6.96;100.00;74497.69;5452881;23;20048;-86
2024/03/08 04:33:35;;;;;;;0.20;0.20;;;;;;;6.89;100.00;74488.75;5072387;28;20032;-86
2024/03/08 04:38:57;;;;;;;0.30;0.30;;;;;;;6.72;100.00;74475.19;5322255;22;20084;-86
2024/03/08 04:42:10;;;;;;;0.20;0.20;;;;;;;6.75;100.00;74472.66;5033209;28;20075;-86
2024/03/08 04:45:13;;;;;;;0.20;0.20;;;;;;;6.43;100.00;74443.97;5057474;28;20037;-85
2024/03/08 04:48:19;;;;;;;0.20;0.20;;;;;;;6.58;100.00;74458.50;5054591;28;20029;-86
2024/03/08 04:51:24;;;;;;;;;;;;;;;6.86;100.00;74496.16;5040692;28;20030;-87
2024/03/08 05:08:52;;;;;;;;;;;;;;;6.65;100.00;74464.09;5080592;28;20060;-87
2024/03/08 05:19:36;;;;;;;0.30;0.30;;;;;;;6.75;100.00;74476.00;4976052;28;20030;-87
2024/03/08 05:27:58;;;;;;;0.20;0.20;;;;;;;6.84;100.00;74480.66;5225267;22;20059;-86
2024/03/08 05:31:06;;;;;;;0.20;0.20;;;;;;;6.71;100.00;74467.88;5047944;28;20042;-86
2024/03/08 05:34:39;;;;;;;0.20;0.20;;;;;;;6.88;100.00;74490.91;5008084;28;20152;-87
2024/03/08 05:43:21;;;;;;;0.20;0.20;;;;;;;8.36;99.33;74658.91;5736875;22;20071;-86
2024/03/08 05:46:18;;;;;;;0.20;0.20;;;;;;;9.03;93.56;74744.72;5055497;28;20486;-86
2024/03/08 05:48:54;;;;;;;0.20;0.20;;;;;;;9.91;91.96;74842.47;5043089;28;20041;-86
2024/03/08 05:52:07;;;;;;;0.20;0.20;;;;;;;10.79;86.44;74945.81;5061564;28;20009;-87
2024/03/08 05:55:29;;;;;;;0.20;0.20;;;;;;;11.24;82.80;74998.41;5042741;28;20009;-86
2024/03/08 05:58:17;;;;;;;0.20;0.20;;;;;;;12.04;78.35;75090.09;5058496;28;20045;-86
2024/03/08 06:00:47;;;;;;;0.20;0.20;;;;;;;12.33;75.22;75126.34;5038937;28;20068;-85
2024/03/08 06:03:13;;;;;;;0.22;0.22;;;;;;;13.20;69.00;75228.06;5051132;28;20059;-86
2024/03/08 06:05:41;;;;;;;0.30;0.30;;;;;;;12.94;68.82;75198.13;5031936;28;20034;-86
2024/03/08 06:08:08;;;;;;;0.20;0.20;;;;;;;13.20;68.15;75225.88;5047442;28;20044;-86
2024/03/08 06:10:49;;;;;;;0.20;0.20;;;;;;;13.78;64.87;75299.09;5030575;28;20025;-86
2024/03/08 06:13:18;;;;;;;0.20;0.20;;;;;;;14.10;64.29;75334.63;5032049;28;20025;-87
2024/03/08 06:15:45;;;;;;;0.20;0.20;;;;;;;14.67;60.17;75401.16;5030904;28;20021;-86
2024/03/08 06:18:11;;;;;;;0.20;0.20;;;;;;;14.77;58.73;75412.53;5032905;28;20093;-87
2024/03/08 06:20:50;;;;;;;0.25;0.25;;;;;;;15.22;55.90;75459.69;5052394;28;20071;-87
2024/03/08 06:23:17;;;;;;;0.30;0.30;;;;;;;15.56;54.80;75502.63;5053133;28;20033;-87
2024/03/08 06:25:44;;;;;;;0.20;0.20;;;;;;;15.94;54.46;75551.00;5036225;28;20045;-87
2024/03/08 06:28:19;;;;;;;0.20;0.20;;;;;;;16.28;54.08;75587.19;5036648;28;20029;-86
2024/03/08 06:34:17;;;;;;;0.20;0.20;;;;;;;15.73;53.43;75528.00;6107213;22;20035;-89
2024/03/08 06:36:47;;;;;;;0.20;0.20;;;;;;;16.68;51.00;75631.78;5058297;28;20037;-89
2024/03/08 06:39:15;;;;;;;0.20;0.20;;;;;;;16.20;51.50;75575.41;5059027;28;20017;-89
2024/03/08 06:41:50;;;;;;;0.20;0.20;;;;;;;16.26;49.78;75587.56;5009931;28;20186;-88
2024/03/08 06:44:35;;;;;;;;;;;;;;;17.10;48.00;75687.19;5058158;28;20116;-89
2024/03/08 06:47:02;;;;;;;0.20;0.20;;;;;;;17.03;46.72;75678.75;5077975;28;19901;-88
2024/03/08 08:47:23;;;;;;;0.20;0.20;;;;;;;17.09;46.44;75685.34;5568525;23;20035;-88
2024/03/08 08:49:56;;;;;;;0.20;0.20;;;;;;;16.80;45.54;75651.16;4985361;28;20033;-87
2024/03/08 11:17:10;;;;;;;0.20;0.20;;;;;;;17.51;40.91;75729.56;4999178;28;20046;-90
2024/03/08 11:40:49;;;;;;;0.20;0.20;;;;;;;18.07;36.42;75795.63;5900363;23;20066;-90
2024/03/08 15:16:23;;;;;;;0.20;0.20;;;;;;;16.52;43.46;75610.38;4997479;28;20065;-86
2024/03/08 15:19:20;;;;;;;0.20;0.20;;;;;;;16.47;43.02;75607.19;4945809;29;20031;-86
2024/03/08 15:22:09;;;;;;;0.20;0.20;;;;;;;16.45;43.29;75607.56;4977517;28;20055;-86
2024/03/08 15:25:07;;;;;;;0.20;0.20;;;;;;;16.23;43.57;75579.59;4959428;28;20048;-87
2024/03/08 15:27:38;;;;;;;0.20;0.20;;;;;;;15.83;43.80;75531.63;4919360;29;20111;-86
2024/03/08 15:30:12;;;;;;;0.20;0.20;;;;;;;15.53;43.86;75496.25;4942337;29;20046;-86
2024/03/08 15:32:39;;;;;;;;;;;;;;;15.76;41.90;75523.81;4959906;29;20014;-86
2024/03/08 15:35:22;;;;;;;0.20;0.20;;;;;;;15.65;40.58;75510.63;4943099;29;19917;-87
2024/03/08 15:37:58;;;;;;;0.20;0.20;;;;;;;15.44;40.56;75486.03;4969502;29;20042;-86
2024/03/08 15:40:34;;;;;;;0.20;0.20;;;;;;;15.64;40.75;75510.03;4961198;29;20103;-86
2024/03/08 15:43:01;;;;;;;0.20;0.20;;;;;;;15.39;40.49;75482.84;4981751;28;20041;-85
2024/03/08 15:45:44;;;;;;;0.20;0.20;;;;;;;15.39;42.09;75477.88;4989694;28;20038;-84
2024/03/08 15:48:10;;;;;;;0.20;0.20;;;;;;;15.46;42.50;75494.03;4968286;28;20090;-86
2024/03/08 15:50:37;;;;;;;0.20;0.20;;;;;;;15.16;48.27;75458.66;4966494;28;20054;-86
2024/03/08 15:53:03;;;;;;;0.20;0.20;;;;;;;15.01;51.53;75432.94;4954107;28;20198;-86
2024/03/08 15:55:44;;;;;;;0.20;0.20;;;;;;;14.86;52.79;75423.91;4965065;28;20042;-84
2024/03/08 15:58:09;;;;;;;0.20;0.20;;;;;;;14.79;54.39;75412.13;4963721;28;20174;-86
2024/03/08 16:00:38;;;;;;;0.20;0.20;;;;;;;14.51;55.70;75377.00;4958815;28;20038;-85
2024/03/08 16:03:32;;;;;;;0.20;0.20;;;;;;;14.38;55.49;75369.75;4964330;28;20031;-86
2024/03/08 16:05:58;;;;;;;0.20;0.20;;;;;;;14.50;55.61;75378.59;4971093;28;20046;-86
2024/03/08 16:08:24;;;;;;;0.20;0.20;;;;;;;14.19;55.38;75342.03;4972150;28;20058;-86
2024/03/08 16:10:56;;;;;;;0.20;0.20;;;;;;;14.25;55.31;75340.88;4958564;28;20094;-87
2024/03/08 16:13:31;;;;;;;0.20;0.20;;;;;;;14.27;55.30;75348.22;4975961;28;20047;-87
2024/03/08 16:16:03;;;;;;;0.20;0.20;;;;;;;14.27;56.22;75351.63;4952386;28;20044;-86
2024/03/08 16:18:42;;;;;;;0.20;0.20;;;;;;;14.19;56.76;75341.44;4979106;29;20024;-86
2024/03/08 16:21:18;;;;;;;0.20;0.20;;;;;;;14.25;55.69;75345.84;4985197;28;20034;-86
2024/03/08 16:23:46;;;;;;;0.20;0.20;;;;;;;14.17;56.51;75336.88;4972714;28;20046;-85
2024/03/08 16:26:13;;;;;;;0.20;0.20;;;;;;;14.15;56.60;75335.06;4991333;28;20034;-88
2024/03/08 16:28:41;;;;;;;0.20;0.20;;;;;;;14.18;56.97;75343.63;4974046;28;20027;-87
2024/03/08 16:31:44;;;;;;;0.20;0.20;;;;;;;13.59;58.42;75268.63;4963356;28;20031;-88
2024/03/08 16:34:16;;;;;;;0.20;0.20;;;;;;;13.63;60.06;75278.94;4992643;28;20087;-85
2024/03/08 16:36:42;;;;;;;0.20;0.20;;;;;;;13.39;60.29;75244.69;4996900;28;20059;-85
2024/03/08 16:39:09;;;;;;;0.20;0.20;;;;;;;13.57;60.48;75266.81;4979522;28;20445;-86
2024/03/08 16:42:05;;;;;;;0.20;0.20;;;;;;;13.19;60.88;75224.09;4958286;29;20036;-86
2024/03/08 16:48:23;;;;;;;0.30;0.30;;;;;;;13.18;62.48;75225.66;4941693;29;20046;-87
2024/03/08 16:50:57;;;;;;;0.20;0.20;;;;;;;13.06;62.85;75209.72;4929704;29;20566;-86
2024/03/08 16:53:47;;;;;;;0.20;0.20;;;;;;;12.87;63.28;75189.75;4914026;29;20039;-87
2024/03/08 16:56:13;;;;;;;0.20;0.20;;;;;;;12.88;64.04;75190.97;4949932;29;20103;-85
2024/03/08 16:58:42;;;;;;;0.20;0.20;;;;;;;13.05;65.03;75207.94;4942486;29;20047;-87
2024/03/08 17:04:31;;;;;;;0.20;0.20;;;;;;;13.01;65.37;75200.38;4947728;29;20506;-88
2024/03/08 17:07:06;;;;;;;0.20;0.20;;;;;;;12.77;65.98;75172.84;4954739;29;20063;-88
2024/03/08 17:09:57;;;;;;;0.20;0.20;;;;;;;12.84;66.69;75186.19;4942865;29;20038;-88
2024/03/08 17:16:02;;;;;;;0.20;0.20;;;;;;;12.53;67.25;75147.50;4994360;28;20058;-87
2024/03/08 17:18:29;;;;;;;0.30;0.30;;;;;;;12.64;67.32;75156.69;4977799;28;20043;-87
2024/03/08 17:20:57;;;;;;;0.20;0.20;;;;;;;12.52;66.88;75143.53;4959081;28;20022;-87
2024/03/08 17:23:23;;;;;;;0.20;0.20;;;;;;;12.41;68.04;75133.16;4974863;28;20023;-87
2024/03/08 17:25:52;;;;;;;0.20;0.20;;;;;;;12.32;67.91;75119.63;4972883;28;20963;-84
2024/03/08 17:28:18;;;;;;;0.20;0.20;;;;;;;12.52;68.92;75149.09;4973355;28;20069;-86
2024/03/08 17:30:46;;;;;;;0.20;0.20;;;;;;;12.43;70.71;75138.31;4973501;28;20026;-86
2024/03/08 17:33:21;;;;;;;0.20;0.20;;;;;;;12.47;72.16;75137.56;4977048;28;20010;-86
2024/03/08 17:35:47;;;;;;;0.20;0.20;;;;;;;12.44;72.92;75139.50;4972834;28;20090;-86
2024/03/08 17:38:28;;;;;;;0.20;0.20;;;;;;;12.49;73.31;75139.94;4971937;28;20035;-87
2024/03/08 17:40:54;;;;;;;0.20;0.20;;;;;;;12.48;73.80;75140.94;4973621;28;20094;-86
2024/03/08 17:43:29;;;;;;;0.25;0.25;;;;;;;12.50;74.10;75146.09;4976832;28;20027;-86
2024/03/08 17:46:07;;;;;;;0.20;0.20;;;;;;;12.38;73.79;75132.34;4973457;28;20517;-87
2024/03/08 17:48:37;;;;;;;0.20;0.20;;;;;;;12.36;74.11;75123.78;4992880;28;20051;-88
2024/03/08 17:51:12;;;;;;;0.20;0.20;;;;;;;12.38;74.01;75126.78;4978392;28;20053;-87
2024/03/08 17:53:44;;;;;;;0.20;0.20;;;;;;;12.56;75.30;75151.09;4978726;28;20037;-88
2024/03/08 17:56:33;;;;;;;0.20;0.20;;;;;;;12.55;75.33;75152.66;4993654;28;20022;-87
2024/03/08 17:59:09;;;;;;;0.20;0.20;;;;;;;12.40;75.64;75129.19;4994789;28;20035;-87
2024/03/08 18:01:43;;;;;;;0.20;0.20;;;;;;;12.26;77.05;75115.22;4995113;28;20545;-88
2024/03/08 18:04:10;;;;;;;0.22;0.22;;;;;;;12.50;76.01;75146.69;4995387;28;20040;-87
2024/03/08 18:06:55;;;;;;;0.20;0.20;;;;;;;12.55;76.48;75152.66;4979204;28;20027;-87
2024/03/08 18:09:23;;;;;;;0.20;0.20;;;;;;;12.35;76.59;75125.97;4978798;28;20031;-87
2024/03/08 18:11:58;;;;;;;0.20;0.20;;;;;;;12.35;76.01;75122.59;4962440;28;20065;-88
2024/03/08 18:14:26;;;;;;;0.20;0.20;;;;;;;12.44;75.67;75141.69;4977574;28;20082;-87
2024/03/08 18:16:54;;;;;;;0.20;0.20;;;;;;;12.32;76.44;75125.16;4990333;28;20066;-85
2024/03/08 18:19:33;;;;;;;0.20;0.20;;;;;;;12.29;75.88;75121.56;4973304;28;20037;-85
2024/03/08 18:22:04;;;;;;;0.20;0.20;;;;;;;12.06;75.88;75095.25;4959089;28;20109;-87
2024/03/08 18:24:41;;;;;;;0.20;0.20;;;;;;;12.12;76.53;75096.28;4975890;28;20039;-87
2024/03/08 18:27:09;;;;;;;0.20;0.20;;;;;;;12.07;76.82;75096.44;4960225;28;20050;-87
2024/03/08 18:29:43;;;;;;;0.20;0.20;;;;;;;12.13;77.32;75099.66;5010187;28;20042;-87
2024/03/08 18:32:44;;;;;;;0.20;0.20;;;;;;;12.16;76.86;75106.03;4979158;28;20125;-87
2024/03/08 18:35:17;;;;;;;0.20;0.20;;;;;;;11.91;78.09;75073.94;4978782;28;20019;-88
2024/03/08 18:37:51;;;;;;;0.20;0.20;;;;;;;11.64;78.59;75039.47;4961505;28;20023;-87
2024/03/08 18:40:47;;;;;;;0.20;0.20;;;;;;;12.04;79.12;75092.88;4968481;29;20050;-88
2024/03/08 18:43:25;;;;;;;0.20;0.20;;;;;;;12.01;79.59;75085.91;4958249;29;20030;-88
2024/03/08 18:46:22;;;;;;;0.20;0.20;;;;;;;11.93;80.14;75079.72;4972348;29;20054;-87
2024/03/08 18:48:53;;;;;;;0.20;0.20;;;;;;;11.74;79.45;75057.56;4958225;29;20031;-87
2024/03/08 18:52:01;;;;;;;0.20;0.20;;;;;;;11.83;80.52;75070.53;4972985;28;20095;-88
2024/03/08 18:54:28;;;;;;;0.22;0.22;;;;;;;11.88;79.96;75073.13;4957852;29;20023;-87
2024/03/08 18:57:00;;;;;;;0.20;0.20;;;;;;;11.69;79.59;75051.00;4963000;28;20039;-87
2024/03/08 18:59:51;;;;;;;0.20;0.20;;;;;;;11.88;79.04;75076.50;4995507;28;20243;-88
2024/03/08 19:02:32;;;;;;;0.20;0.20;;;;;;;11.59;78.03;75036.84;4961766;28;20035;-87
2024/03/08 19:04:58;;;;;;;0.20;0.20;;;;;;;11.81;77.95;75065.34;4977941;28;20062;-86
2024/03/08 19:07:24;;;;;;;0.20;0.20;;;;;;;11.71;77.25;75053.97;4979305;28;20038;-86
2024/03/08 19:09:50;;;;;;;0.20;0.20;;;;;;;11.73;76.51;75055.78;4969997;28;20043;-86
2024/03/08 19:12:18;;;;;;;0.20;0.20;;;;;;;12.03;75.69;75086.13;4973225;28;20030;-86
2024/03/08 19:14:47;;;;;;;0.20;0.20;;;;;;;11.77;75.45;75060.53;4973525;28;20122;-87
2024/03/08 19:17:13;;;;;;;0.20;0.20;;;;;;;12.14;75.89;75098.06;4973545;28;20030;-86
2024/03/08 19:19:41;;;;;;;0.20;0.20;;;;;;;11.97;76.15;75081.72;4940888;29;20042;-87
2024/03/08 19:22:08;;;;;;;0.20;0.20;;;;;;;11.94;75.86;75080.91;4952984;29;20031;-86
2024/03/08 19:24:35;;;;;;;0.20;0.20;;;;;;;11.97;76.55;75084.50;4969235;28;20039;-87
2024/03/08 19:27:02;;;;;;;0.20;0.20;;;;;;;11.89;76.18;75074.94;4970023;28;20026;-87
2024/03/08 19:29:29;;;;;;;0.30;0.30;;;;;;;12.01;77.12;75097.59;4974401;28;20031;-87
2024/03/08 19:31:59;;;;;;;0.20;0.20;;;;;;;12.05;76.91;75093.47;4974015;28;20018;-87
2024/03/08 19:34:25;;;;;;;0.20;0.20;;;;;;;12.06;77.21;75095.25;4971798;28;20031;-87
2024/03/08 19:37:46;;;;;;;0.20;0.20;;;;;;;12.11;78.08;75095.09;4964865;28;20022;-87
2024/03/08 19:40:31;;;;;;;0.20;0.20;;;;;;;11.76;77.11;75059.34;4994143;28;20077;-87
2024/03/08 19:43:00;;;;;;;0.25;0.25;;;;;;;11.79;78.18;75060.78;4956818;28;20034;-87
2024/03/08 19:45:30;;;;;;;0.22;0.22;;;;;;;11.82;78.05;75061.00;4971233;28;20034;-87
2024/03/08 19:48:00;;;;;;;0.20;0.20;;;;;;;12.04;77.15;75090.09;4971411;28;20038;-86
2024/03/08 19:50:29;;;;;;;0.20;0.20;;;;;;;11.74;76.47;75059.75;4973791;28;20094;-86
2024/03/08 19:53:07;;;;;;;0.20;0.20;;;;;;;11.87;74.83;75066.38;4956754;28;20056;-87
2024/03/08 19:55:37;;;;;;;0.20;0.20;;;;;;;11.76;72.79;75065.50;4972478;28;20033;-86
2024/03/08 19:58:04;;;;;;;0.20;0.20;;;;;;;11.65;70.09;75048.97;4968923;28;20035;-87
2024/03/08 20:00:31;;;;;;;0.22;0.22;;;;;;;11.71;68.74;75053.97;4972520;28;20039;-86
2024/03/08 20:03:09;;;;;;;0.30;0.30;;;;;;;11.97;67.64;75078.34;4991352;28;20039;-86
2024/03/08 20:05:42;;;;;;;0.20;0.20;;;;;;;11.69;66.32;75048.22;4975194;28;20061;-87
2024/03/08 20:08:13;;;;;;;0.20;0.20;;;;;;;12.02;66.75;75084.94;4983758;28;20042;-87
2024/03/08 20:10:41;;;;;;;0.20;0.20;;;;;;;11.92;64.86;75072.97;4968699;28;20034;-87
2024/03/08 20:13:08;;;;;;;0.20;0.20;;;;;;;12.00;63.79;75088.09;4985677;28;20035;-87
2024/03/08 20:15:40;;;;;;;0.20;0.20;;;;;;;12.25;62.96;75116.78;4988113;28;20069;-87
2024/03/08 20:18:08;;;;;;;0.20;0.20;;;;;;;12.35;60.18;75122.59;4961392;28;20392;-87
2024/03/08 20:20:35;;;;;;;0.20;0.20;;;;;;;12.26;56.47;75118.00;4997942;28;20030;-87
2024/03/08 20:23:01;;;;;;;0.20;0.20;;;;;;;12.41;54.51;75135.31;4974697;28;20096;-86
2024/03/08 20:25:26;;;;;;;0.20;0.20;;;;;;;12.21;54.22;75106.47;4987452;28;20037;-87
2024/03/08 20:27:57;;;;;;;0.20;0.20;;;;;;;12.51;53.96;75145.09;4973586;28;20631;-87
2024/03/08 20:30:25;;;;;;;0.20;0.20;;;;;;;12.51;53.01;75147.88;4958296;28;20035;-87
2024/03/08 20:33:01;;;;;;;0.20;0.20;;;;;;;12.51;52.57;75145.09;4998011;28;20027;-87
2024/03/08 20:35:30;;;;;;;0.20;0.20;;;;;;;12.49;53.39;75145.50;4975550;28;20026;-88
2024/03/08 20:37:59;;;;;;;0.20;0.20;;;;;;;12.48;54.97;75138.75;4957786;28;20019;-88
2024/03/08 20:40:51;;;;;;;0.28;0.28;;;;;;;12.37;54.24;75127.78;4976737;28;20047;-88
2024/03/08 20:43:23;;;;;;;0.20;0.20;;;;;;;12.41;53.83;75140.88;5006920;28;20061;-87
2024/03/08 20:45:55;;;;;;;0.20;0.20;;;;;;;11.75;60.04;75058.75;5017518;28;20056;-88
2024/03/08 20:48:40;;;;;;;0.20;0.20;;;;;;;11.59;63.44;75039.63;5015557;28;20038;-87
2024/03/08 20:51:45;;;;;;;0.20;0.20;;;;;;;11.66;63.34;75048.00;5002774;28;20013;-88
2024/03/08 20:55:07;;;;;;;0.20;0.20;;;;;;;11.92;63.74;75072.97;4981423;28;20041;-88
2024/03/08 20:57:48;;;;;;;0.20;0.20;;;;;;;11.64;65.10;75040.06;4997665;28;20057;-88
2024/03/08 21:03:39;;;;;;;0.20;0.20;;;;;;;11.63;75.54;75041.06;5017979;28;20033;-86
2024/03/08 21:06:34;;;;;;;0.20;0.20;;;;;;;11.52;80.38;75034.63;5004199;28;20015;-88
2024/03/08 21:09:20;;;;;;;0.20;0.20;;;;;;;11.46;83.35;75021.31;5014513;28;20038;-86
2024/03/08 21:11:47;;;;;;;0.20;0.20;;;;;;;11.40;85.08;75012.00;4959358;28;20066;-87
2024/03/08 21:14:19;;;;;;;0.20;0.20;;;;;;;11.25;84.98;74999.59;4976985;28;20050;-87
2024/03/08 21:17:17;;;;;;;0.20;0.20;;;;;;;11.47;85.60;75025.88;4979710;28;20043;-88
2024/03/08 21:19:56;;;;;;;0.20;0.20;;;;;;;11.29;88.34;75007.13;4966849;29;20039;-88
2024/03/08 21:22:23;;;;;;;0.30;0.30;;;;;;;11.35;89.11;75014.31;4973846;28;20130;-86
2024/03/08 21:25:43;;;;;;;0.20;0.20;;;;;;;11.53;91.18;75035.81;4943920;29;20031;-89
2024/03/08 21:28:12;;;;;;;0.20;0.20;;;;;;;11.35;89.90;75010.94;4996845;28;20039;-89
2024/03/08 21:30:48;;;;;;;0.20;0.20;;;;;;;11.64;87.69;75045.00;4982072;28;20038;-89
2024/03/08 21:34:04;;;;;;;0.20;0.20;;;;;;;11.52;87.45;75022.97;4998584;28;20031;-89
2024/03/08 21:36:30;;;;;;;0.20;0.20;;;;;;;11.50;83.77;75026.72;4977624;29;20039;-89
2024/03/08 21:38:56;;;;;;;0.20;0.20;;;;;;;11.23;77.35;74997.78;4985386;28;20026;-88
2024/03/08 21:45:16;;;;;;;0.20;0.20;;;;;;;11.69;77.97;75048.22;4998702;28;20093;-88
2024/03/08 21:48:11;;;;;;;0.20;0.20;;;;;;;11.49;74.45;75025.50;4984766;28;20023;-89
2024/03/08 21:51:21;;;;;;;0.20;0.20;;;;;;;11.73;69.34;75055.78;4999083;28;20021;-89
2024/03/08 21:54:20;;;;;;;0.20;0.20;;;;;;;11.85;67.16;75069.56;4998795;28;20031;-88
2024/03/08 21:56:51;;;;;;;0.20;0.20;;;;;;;11.73;65.06;75055.78;4981726;28;20031;-89
2024/03/08 21:59:21;;;;;;;0.20;0.20;;;;;;;11.95;63.19;75082.09;4980337;28;20058;-89
2024/03/08 22:01:52;;;;;;;0.20;0.20;;;;;;;11.85;64.63;75070.16;4977661;28;20046;-88
2024/03/08 22:04:22;;;;;;;0.20;0.20;;;;;;;11.71;61.38;75053.38;4979969;28;20023;-88
2024/03/08 22:07:18;;;;;;;0.20;0.20;;;;;;;11.99;60.68;75086.28;4975956;28;20031;-86
2024/03/08 22:09:44;;;;;;;0.20;0.20;;;;;;;11.82;54.59;75063.19;4959071;28;20065;-87
2024/03/08 22:12:16;;;;;;;0.20;0.20;;;;;;;12.05;51.81;75087.94;4992333;28;20409;-86
2024/03/08 22:15:22;;;;;;;0.20;0.20;;;;;;;12.61;50.87;75158.66;4990860;28;20014;-86
2024/03/08 22:18:32;;;;;;;0.20;0.20;;;;;;;12.52;50.30;75149.09;5004590;28;20022;-89
2024/03/08 22:21:35;;;;;;;0.20;0.20;;;;;;;12.27;51.64;75119.19;4997554;28;20022;-88
2024/03/08 22:24:03;;;;;;;0.20;0.20;;;;;;;12.55;51.47;75152.66;4976717;29;20039;-87
2024/03/08 22:27:01;;;;;;;0.20;0.20;;;;;;;12.52;51.14;75149.09;4978917;28;20027;-89
2024/03/08 22:29:47;;;;;;;0.20;0.20;;;;;;;12.33;51.57;75123.59;4975988;28;20043;-88
2024/03/08 22:32:53;;;;;;;0.20;0.20;;;;;;;12.45;51.64;75137.94;4940988;28;20119;-86
2024/03/08 22:35:45;;;;;;;0.20;0.20;;;;;;;12.56;52.70;75151.09;4938373;28;20027;-87
2024/03/08 22:45:38;;;;;;;;;;;;;;;;;;;;;
2024/03/08 22:48:54;;;;;;;0.20;0.20;;;;;;;12.11;60.32;75097.28;4921428;29;20032;-88
2024/03/08 22:51:44;;;;;;;0.20;0.20;;;;;;;11.70;62.46;75052.19;4922320;29;20024;-88
2024/03/08 22:54:18;;;;;;;0.20;0.20;;;;;;;11.54;64.67;75034.25;4922592;29;20044;-88
2024/03/08 23:00:55;;;;;;;0.30;0.30;;;;;;;11.48;69.16;75027.06;4920751;29;20052;-88
2024/03/08 23:03:43;;;;;;;0.30;0.30;;;;;;;11.41;68.31;75020.88;4912435;28;20040;-87
2024/03/08 23:06:12;;;;;;;0.30;0.30;;;;;;;11.73;66.20;75055.78;4952590;29;20075;-86
2024/03/08 23:09:01;;;;;;;0.20;0.20;;;;;;;11.64;66.31;75042.25;4953688;28;20031;-88
2024/03/08 23:11:28;;;;;;;0.20;0.20;;;;;;;11.52;67.26;75031.25;4960335;28;20043;-88
2024/03/08 23:13:56;;;;;;;0.20;0.20;;;;;;;11.71;69.48;75053.38;4958836;28;20030;-87
2024/03/08 23:16:26;;;;;;;0.28;0.28;;;;;;;11.80;70.12;75064.13;4976307;28;20050;-87
2024/03/08 23:18:59;;;;;;;0.20;0.20;;;;;;;11.87;71.86;75072.53;4980511;28;20011;-89
2024/03/08 23:22:03;;;;;;;0.20;0.20;;;;;;;12.04;72.83;75092.88;4980769;28;20038;-89
2024/03/08 23:27:40;;;;;;;0.20;0.20;;;;;;;11.70;75.34;75052.19;4996484;28;20102;-88
2024/03/08 23:30:22;;;;;;;0.20;0.20;;;;;;;11.57;75.35;75034.47;4978049;28;20019;-89
2024/03/08 23:32:53;;;;;;;0.20;0.20;;;;;;;11.51;74.36;75030.66;4961513;28;20039;-88
2024/03/08 23:35:48;;;;;;;0.20;0.20;;;;;;;11.79;75.03;75063.53;4993545;28;20037;-89
2024/03/08 23:38:44;;;;;;;0.20;0.20;;;;;;;11.85;74.68;75066.78;4981497;28;20023;-90
2024/03/08 23:41:49;;;;;;;0.20;0.20;;;;;;;11.80;74.35;75064.13;4923109;29;20037;-89
2024/03/08 23:45:01;;;;;;;0.20;0.20;;;;;;;11.70;72.50;75054.94;4921151;29;20042;-88
2024/03/08 23:51:35;;;;;;;0.20;0.20;;;;;;;11.88;71.09;75070.97;4958744;29;20087;-89
2024/03/08 23:58:10;;;;;;;0.20;0.20;;;;;;;12.02;70.23;75084.94;4939652;29;20084;-89
